Time;durP1;ratioP1;P1;durP2;ratioP2;P2;SDS_P1;SDS_P2;PMS_P1;PMS_P2;Temp;Humidity;BMP_temperature;BMP_pressure;BME280_temperature;BME280_humidity;BME280_pressure;Samples;Min_cycle;Max_cycle;Signal;HPM_P1;HPM_P2
2023/01/22 00:01:11;;;;;;;4.20;0.52;;;;;;;6.59;61.43;100002.94;4368436;32;33459;-82
2023/01/22 00:03:40;;;;;;;0.00;0.00;;;;;;;6.56;61.68;100010.03;4336071;32;35346;-82
2023/01/22 00:06:08;;;;;;;0.65;0.65;;;;;;;6.36;62.38;100015.72;4375896;32;33871;-82
2023/01/22 00:08:36;;;;;;;0.17;0.17;;;;;;;6.45;62.28;100017.28;4380567;32;33369;-82
2023/01/22 00:11:04;;;;;;;0.08;0.08;;;;;;;6.39;62.85;100013.06;4391863;32;33614;-83
2023/01/22 00:13:31;;;;;;;0.13;0.13;;;;;;;6.40;63.08;100020.88;4379335;32;33841;-82
2023/01/22 00:15:59;;;;;;;0.52;0.17;;;;;;;6.29;63.39;100020.25;4366459;32;32840;-82
2023/01/22 00:18:27;;;;;;;2.90;1.12;;;;;;;6.53;63.09;100010.09;4379136;32;34151;-82
2023/01/22 00:20:55;;;;;;;0.55;0.55;;;;;;;6.62;62.58;100017.75;4354809;32;32845;-82
2023/01/22 00:23:22;;;;;;;1.85;0.40;;;;;;;6.81;60.87;100019.03;4384221;32;34559;-82
2023/01/22 00:26:14;;;;;;;0.40;0.40;;;;;;;6.91;60.41;100022.28;4365140;32;32088;-82
2023/01/22 00:28:46;;;;;;;0.37;0.37;;;;;;;6.69;61.38;100027.19;4365983;32;34062;-82
2023/01/22 00:31:15;;;;;;;0.25;0.15;;;;;;;6.63;61.61;100022.09;4395176;32;33021;-82
2023/01/22 00:33:44;;;;;;;0.40;0.40;;;;;;;6.79;61.20;100033.06;4393821;32;34603;-82
2023/01/22 00:36:17;;;;;;;0.10;0.08;;;;;;;6.88;61.15;100018.00;4377351;32;33526;-82
2023/01/22 00:38:47;;;;;;;2.65;0.85;;;;;;;6.85;60.78;100025.06;4378016;32;33881;-82
2023/01/22 00:41:16;;;;;;;0.55;0.20;;;;;;;6.60;61.95;100030.06;4378811;32;33609;-82
2023/01/22 00:43:44;;;;;;;0.10;0.10;;;;;;;6.90;60.96;100031.06;4378937;32;34354;-82
2023/01/22 00:46:14;;;;;;;0.10;0.10;;;;;;;6.35;63.26;100029.75;4366648;32;34024;-83
2023/01/22 00:48:48;;;;;;;0.95;0.93;;;;;;;6.52;63.08;100032.00;4382538;32;33355;-82
2023/01/22 00:51:16;;;;;;;0.00;0.00;;;;;;;6.46;63.15;100037.37;4385266;32;33574;-82
2023/01/22 00:53:44;;;;;;;0.00;0.00;;;;;;;6.56;62.86;100025.78;4366569;32;32396;-82
2023/01/22 00:56:12;;;;;;;0.43;0.37;;;;;;;6.73;62.53;100028.84;4370973;32;33035;-82
2023/01/22 00:58:40;;;;;;;0.70;0.65;;;;;;;6.52;63.22;100034.63;4395998;32;34084;-82
2023/01/22 01:01:08;;;;;;;1.85;1.60;;;;;;;6.88;61.95;100036.38;4378410;32;33151;-82
2023/01/22 01:03:36;;;;;;;0.28;0.28;;;;;;;6.72;62.55;100040.25;4384763;32;33458;-83
2023/01/22 01:06:10;;;;;;;0.22;0.22;;;;;;;6.64;62.79;100039.56;4378701;32;33642;-83
2023/01/22 01:08:41;;;;;;;0.17;0.17;;;;;;;6.67;62.99;100037.72;4391260;32;34092;-83
2023/01/22 01:11:29;;;;;;;0.52;0.52;;;;;;;6.61;63.19;100030.03;4365519;32;33562;-83
2023/01/22 01:13:56;;;;;;;0.95;0.77;;;;;;;6.60;62.97;100040.56;4378327;32;34840;-82
2023/01/22 01:16:28;;;;;;;0.30;0.30;;;;;;;6.51;63.56;100039.00;4378554;32;34742;-82
2023/01/22 01:19:05;;;;;;;0.00;0.00;;;;;;;6.61;63.29;100043.13;4383405;32;33619;-81
2023/01/22 01:21:34;;;;;;;0.65;0.65;;;;;;;6.98;62.04;100041.34;4363753;32;32766;-82
2023/01/22 01:24:01;;;;;;;2.28;2.08;;;;;;;6.68;62.97;100046.47;4393522;32;33651;-81
2023/01/22 01:26:29;;;;;;;0.00;0.00;;;;;;;6.66;63.46;100043.03;4397133;32;33588;-82
2023/01/22 01:28:57;;;;;;;2.87;1.12;;;;;;;6.58;63.62;100042.34;4381744;32;34102;-81
2023/01/22 01:31:24;;;;;;;1.55;1.05;;;;;;;6.63;63.72;100043.94;4378393;32;32996;-82
2023/01/22 01:33:56;;;;;;;0.33;0.33;;;;;;;6.53;64.26;100046.84;4384802;32;33256;-82
2023/01/22 01:36:24;;;;;;;0.70;0.45;;;;;;;6.55;64.42;100055.50;4378126;32;33554;-82
2023/01/22 01:39:12;;;;;;;1.00;1.00;;;;;;;6.70;63.72;100052.56;4377592;32;33922;-81
2023/01/22 01:41:39;;;;;;;0.22;0.22;;;;;;;6.71;63.86;100053.41;4395329;32;33126;-81
2023/01/22 01:44:13;;;;;;;0.25;0.25;;;;;;;6.68;63.89;100049.09;4378233;32;33814;-81
2023/01/22 01:47:04;;;;;;;0.65;0.65;;;;;;;6.49;64.48;100047.78;4396362;32;34002;-81
2023/01/22 01:49:48;;;;;;;0.82;0.75;;;;;;;6.40;65.06;100054.09;4376808;32;33796;-81
2023/01/22 01:52:16;;;;;;;0.57;0.57;;;;;;;6.18;65.76;100045.03;4397057;32;33355;-81
2023/01/22 01:54:47;;;;;;;0.00;0.00;;;;;;;6.68;63.50;100047.31;4365689;32;32487;-81
2023/01/22 01:57:18;;;;;;;0.20;0.20;;;;;;;7.01;62.61;100043.91;4378453;32;32759;-81
2023/01/22 01:59:46;;;;;;;0.17;0.17;;;;;;;6.74;62.37;100041.09;4384148;32;33789;-81
2023/01/22 02:02:14;;;;;;;0.00;0.00;;;;;;;6.39;63.65;100044.53;4377460;32;33940;-81
2023/01/22 02:04:42;;;;;;;0.00;0.00;;;;;;;6.26;63.99;100038.69;4362997;32;34234;-81
2023/01/22 02:07:10;;;;;;;0.10;0.10;;;;;;;6.37;64.08;100036.69;4363705;32;32835;-81
2023/01/22 02:09:38;;;;;;;0.15;0.15;;;;;;;6.47;63.83;100037.34;4375220;32;33567;-81
2023/01/22 02:12:06;;;;;;;0.90;0.90;;;;;;;6.36;63.97;100037.59;4351773;32;32283;-81
2023/01/22 02:14:38;;;;;;;0.75;0.20;;;;;;;6.25;64.52;100036.97;4375261;32;33876;-81
2023/01/22 02:17:10;;;;;;;0.15;0.15;;;;;;;6.29;65.07;100036.00;4350697;32;34171;-81
2023/01/22 02:19:38;;;;;;;0.10;0.10;;;;;;;6.33;65.02;100031.56;4363270;32;33324;-82
2023/01/22 02:22:18;;;;;;;0.00;0.00;;;;;;;6.27;65.05;100035.19;4362917;32;33213;-82
2023/01/22 02:24:46;;;;;;;0.05;0.05;;;;;;;6.19;65.21;100026.63;4366805;32;32750;-82
2023/01/22 02:27:14;;;;;;;0.85;0.85;;;;;;;6.34;65.15;100034.13;4363275;32;33894;-82
2023/01/22 02:29:41;;;;;;;1.12;0.75;;;;;;;6.22;65.54;100031.81;4350705;32;33755;-82
2023/01/22 02:32:09;;;;;;;0.30;0.30;;;;;;;6.58;64.20;100034.47;4360532;32;33511;-83
2023/01/22 02:34:37;;;;;;;0.40;0.40;;;;;;;6.21;65.28;100034.44;4362580;32;34524;-82
2023/01/22 02:37:05;;;;;;;0.00;0.00;;;;;;;6.46;64.32;100032.12;4350253;32;33000;-82
2023/01/22 02:39:33;;;;;;;0.80;0.80;;;;;;;6.55;63.85;100024.03;4361685;32;35641;-82
2023/01/22 02:42:02;;;;;;;0.00;0.00;;;;;;;6.47;63.71;100026.00;4362639;32;34273;-82
2023/01/22 02:44:30;;;;;;;0.00;0.00;;;;;;;6.18;64.29;100021.41;4350663;32;33387;-82
2023/01/22 02:46:58;;;;;;;0.47;0.47;;;;;;;6.25;63.74;100023.00;4361769;32;33744;-82
2023/01/22 02:49:26;;;;;;;1.17;1.08;;;;;;;6.39;63.58;100019.16;4362380;32;34526;-82
2023/01/22 02:51:53;;;;;;;0.22;0.22;;;;;;;6.07;64.47;100016.37;4361913;32;33158;-82
2023/01/22 02:54:21;;;;;;;0.00;0.00;;;;;;;6.20;64.15;100019.63;4360723;32;33877;-82
2023/01/22 02:56:49;;;;;;;0.82;0.70;;;;;;;6.21;63.90;100019.56;4354679;32;33504;-82
2023/01/22 02:59:17;;;;;;;0.00;0.00;;;;;;;5.86;65.00;100023.78;4363253;32;34889;-82
2023/01/22 03:01:46;;;;;;;0.10;0.10;;;;;;;6.04;64.81;100026.97;4349563;32;32833;-82
2023/01/22 03:04:14;;;;;;;0.00;0.00;;;;;;;6.16;63.91;100011.81;4363319;32;32815;-82
2023/01/22 03:06:44;;;;;;;0.17;0.17;;;;;;;5.96;64.90;100015.78;4375780;32;33927;-82
2023/01/22 03:09:13;;;;;;;0.03;0.03;;;;;;;6.10;64.62;100005.84;4349567;32;35793;-82
2023/01/22 03:11:43;;;;;;;0.30;0.30;;;;;;;6.03;64.48;100010.37;4362986;32;34327;-84
2023/01/22 03:22:32;;;;;;;0.25;0.25;;;;;;;6.23;63.99;99996.81;4364962;32;33752;-82
2023/01/22 03:25:00;;;;;;;1.20;0.43;;;;;;;6.24;63.86;99997.66;4375059;32;34535;-83
2023/01/22 03:27:29;;;;;;;0.00;0.00;;;;;;;5.73;65.73;100003.13;4361994;32;33085;-83
2023/01/22 03:29:57;;;;;;;0.55;0.55;;;;;;;5.80;65.77;100007.34;4362849;32;34506;-83
2023/01/22 03:32:25;;;;;;;0.00;0.00;;;;;;;5.96;65.45;100000.03;4362713;32;33638;-82
2023/01/22 03:34:54;;;;;;;0.00;0.00;;;;;;;5.89;65.61;100004.53;4363060;32;32318;-82
2023/01/22 03:37:22;;;;;;;0.10;0.10;;;;;;;5.84;65.84;100012.50;4349483;32;33302;-82
2023/01/22 03:39:50;;;;;;;0.17;0.17;;;;;;;5.95;65.53;100008.81;4362818;32;32734;-83
2023/01/22 03:42:18;;;;;;;0.00;0.00;;;;;;;5.88;66.05;100006.25;4374287;32;33728;-82
2023/01/22 03:44:46;;;;;;;0.20;0.20;;;;;;;5.84;65.80;100006.34;4362575;32;34631;-82
2023/01/22 03:47:16;;;;;;;0.75;0.37;;;;;;;5.98;65.70;100007.00;4364057;32;33546;-82
2023/01/22 03:49:43;;;;;;;0.30;0.15;;;;;;;5.96;65.49;99997.41;4351038;32;33721;-82
2023/01/22 03:52:11;;;;;;;0.00;0.00;;;;;;;6.07;64.99;100004.13;4364323;32;32889;-82
2023/01/22 03:54:39;;;;;;;0.62;0.62;;;;;;;5.87;65.70;99999.31;4351284;32;32334;-82
2023/01/22 03:57:07;;;;;;;0.00;0.00;;;;;;;6.24;64.56;99995.91;4363442;32;32567;-82
2023/01/22 03:59:35;;;;;;;0.00;0.00;;;;;;;6.08;64.88;100007.66;4351799;32;33926;-82
2023/01/22 04:02:02;;;;;;;0.57;0.57;;;;;;;6.23;64.64;100007.31;4364342;32;32831;-82
2023/01/22 04:04:33;;;;;;;0.00;0.00;;;;;;;6.13;64.82;100005.78;4375228;32;33394;-82
2023/01/22 04:07:01;;;;;;;0.00;0.00;;;;;;;6.32;64.34;100011.47;4351778;32;34312;-82
2023/01/22 04:09:28;;;;;;;1.87;1.30;;;;;;;6.20;64.51;100007.34;4368944;32;33456;-82
2023/01/22 04:11:56;;;;;;;0.98;0.93;;;;;;;6.24;64.75;100008.16;4348410;32;32381;-81
2023/01/22 04:14:25;;;;;;;0.20;0.20;;;;;;;6.32;64.28;100012.34;4361259;32;33428;-82
2023/01/22 04:16:53;;;;;;;0.00;0.00;;;;;;;6.08;65.28;100005.03;4361086;32;32750;-83
2023/01/22 04:19:22;;;;;;;0.05;0.05;;;;;;;6.27;64.51;100001.09;4362095;32;34609;-83
2023/01/22 04:21:50;;;;;;;0.13;0.13;;;;;;;5.91;65.75;100002.72;4350621;32;33011;-83
2023/01/22 04:24:17;;;;;;;0.37;0.37;;;;;;;5.94;65.76;100001.84;4376137;32;33822;-83
2023/01/22 04:26:45;;;;;;;0.20;0.20;;;;;;;5.99;65.87;99998.22;4362765;32;33742;-83
2023/01/22 04:29:13;;;;;;;0.30;0.30;;;;;;;5.96;66.15;99993.03;4364596;32;34121;-83
2023/01/22 04:31:42;;;;;;;0.00;0.00;;;;;;;6.38;64.32;99995.59;4351690;32;33068;-82
2023/01/22 04:34:10;;;;;;;0.00;0.00;;;;;;;6.18;65.15;100009.16;4376573;32;33795;-82
2023/01/22 04:36:38;;;;;;;0.90;0.37;;;;;;;6.11;65.34;100007.56;4376332;32;34055;-82
2023/01/22 04:39:05;;;;;;;0.00;0.00;;;;;;;6.10;65.75;100011.94;4363851;32;34296;-83
2023/01/22 04:41:33;;;;;;;0.00;0.00;;;;;;;5.89;66.45;100008.00;4364008;32;33098;-82
2023/01/22 04:44:01;;;;;;;0.98;0.98;;;;;;;5.92;66.80;100006.25;4364286;32;32554;-82
2023/01/22 04:46:30;;;;;;;0.80;0.55;;;;;;;5.85;66.94;100008.97;4351945;32;32979;-82
2023/01/22 04:48:58;;;;;;;0.57;0.57;;;;;;;5.93;66.55;100002.72;4364215;32;34701;-82
2023/01/22 04:51:26;;;;;;;0.40;0.40;;;;;;;6.05;66.03;100000.69;4363919;32;33686;-83
2023/01/22 04:53:53;;;;;;;0.40;0.40;;;;;;;6.12;66.12;100004.03;4363820;32;33410;-83
2023/01/22 04:56:22;;;;;;;0.13;0.10;;;;;;;6.03;66.17;100004.25;4363257;32;34692;-83
2023/01/22 04:58:49;;;;;;;0.32;0.32;;;;;;;5.63;67.70;100008.53;4363751;32;32533;-83
2023/01/22 05:01:17;;;;;;;0.00;0.00;;;;;;;5.85;66.96;100001.09;4363839;32;34236;-83
2023/01/22 05:03:45;;;;;;;0.40;0.40;;;;;;;6.22;65.78;100005.59;4354601;32;33730;-83
2023/01/22 05:06:13;;;;;;;0.68;0.68;;;;;;;6.14;66.01;99999.66;4364171;32;33800;-83
2023/01/22 05:08:41;;;;;;;0.37;0.25;;;;;;;6.29;65.30;100011.53;4362932;32;33737;-82
2023/01/22 05:11:09;;;;;;;0.52;0.50;;;;;;;6.14;65.74;100013.59;4363510;32;33556;-83
2023/01/22 05:13:37;;;;;;;0.25;0.25;;;;;;;6.36;65.24;100024.50;4362045;32;33251;-83
2023/01/22 05:16:05;;;;;;;0.20;0.20;;;;;;;6.29;65.52;100022.03;4363548;32;32708;-83
2023/01/22 05:18:34;;;;;;;0.17;0.17;;;;;;;6.33;65.19;100032.41;4364075;32;34107;-84
2023/01/22 05:21:02;;;;;;;0.00;0.00;;;;;;;6.14;65.99;100033.72;4350978;32;32712;-83
2023/01/22 05:23:30;;;;;;;0.35;0.35;;;;;;;6.19;65.90;100038.88;4351739;32;33153;-84
2023/01/22 05:25:58;;;;;;;0.47;0.47;;;;;;;6.22;65.98;100041.41;4350062;32;34242;-84
2023/01/22 05:28:25;;;;;;;0.10;0.10;;;;;;;6.17;65.84;100054.63;4362995;32;32738;-83
2023/01/22 05:30:54;;;;;;;0.00;0.00;;;;;;;6.12;66.16;100051.22;4376433;32;33583;-82
2023/01/22 05:33:22;;;;;;;1.17;0.70;;;;;;;6.11;66.49;100060.84;4363653;32;33011;-83
2023/01/22 05:35:57;;;;;;;0.10;0.10;;;;;;;6.25;65.83;100062.31;4363246;32;33829;-82
2023/01/22 05:38:27;;;;;;;0.17;0.17;;;;;;;6.31;65.76;100065.66;4363252;32;33754;-83
2023/01/22 05:40:55;;;;;;;0.00;0.00;;;;;;;6.44;64.85;100062.78;4356461;32;34289;-83
2023/01/22 05:43:23;;;;;;;0.20;0.20;;;;;;;6.30;65.58;100076.19;4363438;32;34185;-83
2023/01/22 05:45:51;;;;;;;1.58;0.52;;;;;;;6.19;65.94;100081.69;4358479;32;33680;-82
2023/01/22 05:48:20;;;;;;;1.77;0.77;;;;;;;6.29;65.58;100079.72;4376216;32;34782;-83
2023/01/22 05:50:47;;;;;;;1.48;1.37;;;;;;;6.52;64.45;100084.47;4363479;32;34284;-83
2023/01/22 05:53:15;;;;;;;1.50;0.75;;;;;;;6.35;65.18;100088.31;4356371;32;34719;-83
2023/01/22 05:55:43;;;;;;;0.05;0.05;;;;;;;6.18;65.62;100093.06;4363154;32;32840;-83
2023/01/22 05:58:11;;;;;;;0.32;0.32;;;;;;;6.24;65.60;100095.56;4344122;32;33874;-82
2023/01/22 06:00:41;;;;;;;0.62;0.62;;;;;;;6.46;65.12;100098.59;4375876;32;33324;-82
2023/01/22 06:03:09;;;;;;;2.42;1.80;;;;;;;6.36;65.31;100100.56;4352595;32;33885;-82
2023/01/22 06:05:37;;;;;;;0.20;0.20;;;;;;;6.40;65.34;100091.69;4383332;32;32847;-83
2023/01/22 06:08:05;;;;;;;0.20;0.20;;;;;;;6.55;64.81;100089.62;4377627;32;34121;-83
2023/01/22 06:10:34;;;;;;;0.00;0.00;;;;;;;6.41;65.15;100095.19;4371368;32;33411;-83
2023/01/22 06:13:02;;;;;;;1.17;0.73;;;;;;;6.31;65.46;100096.28;4394759;32;33561;-83
2023/01/22 06:15:30;;;;;;;0.00;0.00;;;;;;;6.40;65.06;100102.19;4394369;32;33646;-83
2023/01/22 06:18:00;;;;;;;0.32;0.32;;;;;;;6.23;65.66;100106.94;4380120;32;32792;-83
2023/01/22 06:20:28;;;;;;;0.90;0.90;;;;;;;6.47;64.60;100116.03;4365935;32;34366;-83
2023/01/22 06:22:55;;;;;;;0.47;0.47;;;;;;;6.15;65.50;100120.19;4367188;32;35608;-83
2023/01/22 06:25:25;;;;;;;0.28;0.25;;;;;;;6.20;65.85;100120.09;4365896;32;32778;-83
2023/01/22 06:27:54;;;;;;;0.40;0.40;;;;;;;6.11;66.32;100120.28;4392745;32;34770;-83
2023/01/22 06:30:22;;;;;;;0.88;0.88;;;;;;;6.57;64.45;100122.81;4365675;32;33175;-83
2023/01/22 06:32:53;;;;;;;0.25;0.25;;;;;;;6.46;64.72;100145.81;4364021;32;31667;-83
2023/01/22 06:35:20;;;;;;;0.52;0.52;;;;;;;6.25;65.44;100141.84;4361692;32;34669;-82
2023/01/22 06:37:49;;;;;;;0.37;0.37;;;;;;;6.44;65.04;100146.72;4376609;32;32182;-82
2023/01/22 06:40:17;;;;;;;2.40;2.12;;;;;;;6.53;64.09;100154.41;4365615;32;33045;-82
2023/01/22 06:42:45;;;;;;;6.22;1.02;;;;;;;6.26;65.42;100154.06;4377619;32;33662;-83
2023/01/22 06:45:12;;;;;;;0.30;0.30;;;;;;;6.21;65.84;100155.91;4376457;32;34678;-83
2023/01/22 06:47:43;;;;;;;0.00;0.00;;;;;;;6.11;66.37;100150.00;4365966;32;32287;-82
2023/01/22 06:50:12;;;;;;;0.95;0.88;;;;;;;6.12;65.82;100150.84;4375399;32;32852;-83
2023/01/22 06:52:40;;;;;;;0.52;0.25;;;;;;;6.32;65.55;100148.72;4351848;32;33383;-83
2023/01/22 06:55:08;;;;;;;1.20;1.20;;;;;;;6.23;65.82;100155.91;4380671;32;34370;-85
2023/01/22 06:57:37;;;;;;;0.32;0.32;;;;;;;6.26;66.08;100159.31;4351261;32;33354;-84
2023/01/22 07:00:06;;;;;;;0.30;0.30;;;;;;;6.21;66.31;100160.31;4379662;32;31365;-85
2023/01/22 07:02:34;;;;;;;0.95;0.20;;;;;;;6.47;65.86;100162.41;4375215;32;33989;-84
2023/01/22 07:05:01;;;;;;;0.40;0.40;;;;;;;6.48;65.57;100158.87;4383208;32;33583;-84
2023/01/22 07:07:29;;;;;;;2.65;0.98;;;;;;;6.38;65.86;100174.81;4370589;32;34916;-83
2023/01/22 07:09:57;;;;;;;1.17;0.88;;;;;;;6.42;65.96;100167.75;4371450;32;33129;-82
2023/01/22 07:12:24;;;;;;;2.05;1.95;;;;;;;6.45;66.21;100177.28;4369548;32;33315;-83
2023/01/22 07:14:52;;;;;;;1.75;0.62;;;;;;;6.81;64.80;100173.03;4367799;32;33446;-83
2023/01/22 07:17:20;;;;;;;0.77;0.77;;;;;;;6.63;65.40;100179.53;4367892;32;33933;-83
2023/01/22 07:19:47;;;;;;;0.35;0.35;;;;;;;6.53;66.02;100180.63;4366669;32;32261;-84
2023/01/22 07:22:15;;;;;;;0.77;0.77;;;;;;;6.72;65.50;100189.84;4372777;32;34626;-84
2023/01/22 07:24:43;;;;;;;0.28;0.28;;;;;;;6.56;66.18;100189.31;4358573;32;31019;-85
2023/01/22 07:27:10;;;;;;;0.68;0.68;;;;;;;6.78;65.74;100202.81;4357803;32;34165;-83
2023/01/22 07:29:38;;;;;;;0.15;0.15;;;;;;;6.65;66.04;100204.00;4359394;32;33552;-83
2023/01/22 07:32:06;;;;;;;2.20;0.88;;;;;;;6.57;66.60;100211.16;4370556;32;31832;-83
2023/01/22 07:34:33;;;;;;;0.40;0.40;;;;;;;6.68;66.27;100206.53;4354999;32;36552;-84
2023/01/22 07:37:02;;;;;;;0.60;0.60;;;;;;;6.69;66.47;100213.50;4332031;32;33245;-84
2023/01/22 07:39:30;;;;;;;1.87;1.75;;;;;;;6.85;65.52;100212.28;4370926;32;32563;-84
2023/01/22 07:42:00;;;;;;;0.62;0.62;;;;;;;6.87;65.75;100209.63;4359706;32;32682;-84
2023/01/22 07:44:29;;;;;;;1.85;1.50;;;;;;;6.82;66.17;100216.75;4395915;32;34941;-84
2023/01/22 07:46:57;;;;;;;2.30;1.85;;;;;;;6.92;65.92;100213.87;4356314;32;32424;-84
2023/01/22 07:49:25;;;;;;;0.35;0.35;;;;;;;6.82;66.50;100214.97;4369232;32;34600;-83
2023/01/22 07:51:52;;;;;;;0.57;0.57;;;;;;;6.66;67.08;100217.06;4358472;32;34623;-84
2023/01/22 07:54:20;;;;;;;0.37;0.37;;;;;;;6.87;66.43;100225.38;4363421;32;30736;-84
2023/01/22 07:56:48;;;;;;;0.30;0.30;;;;;;;6.84;66.80;100221.06;4394744;32;34419;-84
2023/01/22 07:59:16;;;;;;;0.43;0.43;;;;;;;7.26;65.02;100218.34;4382737;32;33156;-84
2023/01/22 08:01:44;;;;;;;1.55;0.95;;;;;;;7.34;64.90;100213.78;4359234;32;32954;-84
2023/01/22 08:04:12;;;;;;;0.20;0.20;;;;;;;7.57;63.83;100196.59;4380337;32;33704;-84
2023/01/22 08:06:39;;;;;;;0.03;0.03;;;;;;;7.54;63.64;100200.16;4375249;32;32570;-84
2023/01/22 08:09:07;;;;;;;0.20;0.20;;;;;;;7.14;65.30;100216.87;4369300;32;33052;-83
2023/01/22 08:11:35;;;;;;;0.47;0.47;;;;;;;7.44;64.52;100222.31;4367321;32;33808;-84
2023/01/22 08:14:02;;;;;;;0.50;0.50;;;;;;;7.25;65.20;100227.13;4378211;32;33145;-82
2023/01/22 08:16:30;;;;;;;0.00;0.00;;;;;;;7.35;64.01;100244.41;4389022;32;34542;-82
2023/01/22 08:18:58;;;;;;;0.65;0.65;;;;;;;7.23;64.51;100249.97;4377744;32;34391;-82
2023/01/22 08:21:25;;;;;;;0.20;0.20;;;;;;;7.30;64.44;100251.53;4376571;32;34313;-82
2023/01/22 08:23:53;;;;;;;0.00;0.00;;;;;;;7.46;63.70;100256.44;4387271;32;33971;-82
2023/01/22 08:26:21;;;;;;;0.55;0.37;;;;;;;7.61;63.25;100250.81;4362804;32;33406;-81
2023/01/22 08:28:48;;;;;;;0.43;0.43;;;;;;;7.46;63.77;100251.19;4376810;32;31405;-83
2023/01/22 08:31:16;;;;;;;0.00;0.00;;;;;;;7.31;63.90;100248.03;4375356;32;34798;-82
2023/01/22 08:33:57;;;;;;;0.10;0.10;;;;;;;7.14;65.12;100265.94;4390604;32;33658;-84
2023/01/22 08:36:25;;;;;;;0.20;0.20;;;;;;;7.14;64.29;100265.94;4378875;32;34207;-84
2023/01/22 08:38:53;;;;;;;0.10;0.10;;;;;;;7.32;63.91;100270.75;4389183;32;33357;-83
2023/01/22 08:41:21;;;;;;;0.10;0.10;;;;;;;6.48;67.27;100284.78;4364216;32;33886;-83
2023/01/22 08:43:50;;;;;;;0.10;0.10;;;;;;;6.69;66.05;100279.09;4377141;32;32986;-83
2023/01/22 08:46:18;;;;;;;0.10;0.10;;;;;;;6.91;64.31;100285.66;4354479;32;33877;-84
2023/01/22 08:48:47;;;;;;;0.25;0.25;;;;;;;6.88;63.85;100288.37;4365393;32;34021;-83
2023/01/22 08:51:15;;;;;;;0.22;0.22;;;;;;;6.97;64.08;100291.66;4370189;32;32008;-84
2023/01/22 08:53:43;;;;;;;1.37;1.37;;;;;;;6.99;64.38;100293.38;4356964;32;33145;-84
2023/01/22 08:56:11;;;;;;;0.30;0.30;;;;;;;6.95;65.27;100301.34;4379405;32;34303;-84
2023/01/22 08:58:38;;;;;;;0.20;0.20;;;;;;;7.30;63.71;100292.69;4377921;32;32804;-84
2023/01/22 09:01:06;;;;;;;0.22;0.22;;;;;;;7.38;63.52;100296.03;4376317;32;32944;-83
2023/01/22 09:03:34;;;;;;;0.00;0.00;;;;;;;7.33;63.65;100304.00;4376974;32;33929;-84
2023/01/22 09:06:01;;;;;;;0.93;0.82;;;;;;;7.30;63.84;100304.06;4378785;32;33751;-83
2023/01/22 09:08:30;;;;;;;0.13;0.13;;;;;;;6.89;65.03;100304.97;4368661;32;32892;-84
2023/01/22 09:10:58;;;;;;;0.47;0.47;;;;;;;7.21;64.30;100309.53;4376511;32;35064;-84
2023/01/22 09:13:25;;;;;;;0.32;0.32;;;;;;;7.28;64.48;100305.88;4377630;32;34248;-84
2023/01/22 09:15:55;;;;;;;0.98;0.85;;;;;;;7.38;64.02;100320.53;4367311;32;33778;-84
2023/01/22 09:18:25;;;;;;;;;;;;;;;7.27;63.77;100317.28;4378383;32;33235;-84
2023/01/22 09:20:52;;;;;;;0.00;0.00;;;;;;;7.41;63.67;100323.09;4389810;32;34460;-84
2023/01/22 09:23:21;;;;;;;0.45;0.45;;;;;;;7.47;62.94;100322.09;4369681;32;32332;-83
2023/01/22 09:25:48;;;;;;;0.00;0.00;;;;;;;6.89;64.90;100326.84;4392287;32;31063;-84
2023/01/22 09:28:16;;;;;;;0.13;0.13;;;;;;;6.95;65.01;100323.22;4368101;32;33638;-84
2023/01/22 09:30:44;;;;;;;0.70;0.70;;;;;;;6.84;65.20;100333.09;4370200;32;33799;-84
2023/01/22 09:33:11;;;;;;;0.52;0.52;;;;;;;7.10;65.03;100327.28;4367476;32;30592;-84
2023/01/22 09:35:39;;;;;;;0.15;0.15;;;;;;;7.01;65.02;100328.34;4377078;32;34458;-84
2023/01/22 09:38:09;;;;;;;1.62;1.20;;;;;;;7.15;64.99;100325.41;4367464;32;32296;-84
2023/01/22 09:40:52;;;;;;;0.40;0.40;;;;;;;7.06;65.71;100331.72;4368473;32;33309;-84
2023/01/22 09:43:33;;;;;;;0.47;0.47;;;;;;;7.07;66.18;100329.97;4375813;32;33744;-84
2023/01/22 09:46:04;;;;;;;0.95;0.47;;;;;;;7.29;65.51;100339.13;4380936;32;33425;-83
2023/01/22 09:48:39;;;;;;;0.37;0.37;;;;;;;7.38;65.39;100338.91;4386702;32;33100;-83
2023/01/22 09:51:12;;;;;;;0.75;0.75;;;;;;;7.10;65.72;100343.03;4363052;32;32444;-83
2023/01/22 09:53:50;;;;;;;0.57;0.57;;;;;;;7.14;65.58;100342.09;4376932;32;33396;-84
2023/01/22 09:56:25;;;;;;;0.03;0.03;;;;;;;7.13;65.96;100341.22;4374335;32;33509;-84
2023/01/22 09:58:54;;;;;;;1.37;1.27;;;;;;;7.30;65.78;100338.22;4377978;32;31636;-85
2023/01/22 10:01:22;;;;;;;0.40;0.40;;;;;;;7.73;63.91;100337.25;4377442;32;32620;-85
2023/01/22 10:03:58;;;;;;;1.90;1.12;;;;;;;7.36;64.69;100340.72;4355233;32;33851;-85
2023/01/22 10:06:28;;;;;;;0.43;0.43;;;;;;;7.52;64.55;100335.13;4358700;32;33075;-84
2023/01/22 10:09:07;;;;;;;0.10;0.10;;;;;;;7.59;64.25;100341.97;4371478;32;32870;-85
2023/01/22 10:11:36;;;;;;;0.65;0.65;;;;;;;7.67;64.02;100346.16;4372323;32;33502;-84
2023/01/22 10:14:13;;;;;;;0.68;0.68;;;;;;;7.60;64.45;100343.72;4340497;32;32677;-83
2023/01/22 10:16:40;;;;;;;1.48;0.93;;;;;;;7.59;63.74;100342.81;4353149;32;33406;-84
2023/01/22 10:19:41;;;;;;;2.00;0.93;;;;;;;7.62;63.93;100347.16;4369378;32;32955;-84
2023/01/22 10:22:21;;;;;;;1.05;0.95;;;;;;;7.46;65.12;100341.41;4341614;32;33468;-83
2023/01/22 10:24:50;;;;;;;0.15;0.15;;;;;;;7.48;64.71;100349.22;4359843;32;33958;-83
2023/01/22 10:27:30;;;;;;;0.68;0.32;;;;;;;7.26;64.82;100347.06;4373167;32;34005;-83
2023/01/22 10:30:13;;;;;;;0.80;0.65;;;;;;;7.18;65.54;100346.38;4339353;32;32799;-83
2023/01/22 10:32:41;;;;;;;1.08;1.05;;;;;;;7.40;65.25;100349.37;4371535;32;36307;-83
2023/01/22 10:35:11;;;;;;;0.35;0.35;;;;;;;7.54;64.75;100349.94;4360147;32;32993;-84
2023/01/22 10:37:47;;;;;;;0.70;0.47;;;;;;;7.39;64.92;100356.41;4359603;32;31395;-83
2023/01/22 10:40:32;;;;;;;1.20;1.10;;;;;;;6.96;67.61;100368.72;4360159;32;33238;-84
2023/01/22 10:43:15;;;;;;;0.10;0.10;;;;;;;7.49;64.91;100351.81;4372373;32;33585;-84
2023/01/22 10:45:54;;;;;;;0.50;0.50;;;;;;;7.45;64.85;100355.41;4346779;32;33233;-83
2023/01/22 10:48:22;;;;;;;0.62;0.62;;;;;;;7.49;65.15;100351.81;4372270;32;34099;-83
2023/01/22 10:51:13;;;;;;;0.22;0.22;;;;;;;7.60;64.49;100348.97;4358206;32;33216;-83
2023/01/22 10:53:47;;;;;;;1.27;1.17;;;;;;;7.64;64.70;100353.22;4369646;32;33205;-83
2023/01/22 10:56:24;;;;;;;0.45;0.45;;;;;;;7.42;66.08;100360.75;4360156;32;33098;-83
2023/01/22 10:58:53;;;;;;;2.70;2.17;;;;;;;7.66;64.79;100369.84;4372571;32;33175;-81
2023/01/22 11:01:46;;;;;;;2.75;1.90;;;;;;;7.36;65.75;100367.00;4360381;32;33286;-82
2023/01/22 11:04:25;;;;;;;0.05;0.05;;;;;;;7.06;67.16;100367.62;4350173;32;34183;-82
2023/01/22 11:07:06;;;;;;;1.55;1.45;;;;;;;6.85;68.55;100366.31;4360203;32;33337;-81
2023/01/22 11:09:58;;;;;;;0.25;0.25;;;;;;;6.63;69.27;100384.19;4383960;32;33768;-82
2023/01/22 11:12:29;;;;;;;0.25;0.25;;;;;;;6.84;68.35;100368.06;4372453;32;32689;-82
2023/01/22 11:15:21;;;;;;;0.57;0.57;;;;;;;6.80;68.35;100371.63;4385589;32;32612;-82
2023/01/22 11:17:50;;;;;;;;;;;;;;;6.75;69.09;100367.38;4359095;32;33247;-81
2023/01/22 11:20:24;;;;;;;0.55;0.55;;;;;;;7.33;66.97;100371.44;4371010;32;34693;-81
2023/01/22 11:23:10;;;;;;;0.10;0.10;;;;;;;7.35;67.11;100364.38;4371642;32;34908;-82
2023/01/22 11:25:44;;;;;;;0.65;0.65;;;;;;;7.51;66.50;100359.69;4373752;32;33519;-81
2023/01/22 11:28:40;;;;;;;0.95;0.95;;;;;;;7.61;66.57;100361.19;4360411;32;32792;-82
2023/01/22 11:31:15;;;;;;;1.45;1.35;;;;;;;7.31;67.75;100373.22;4359171;32;33155;-83
2023/01/22 11:33:55;;;;;;;0.20;0.20;;;;;;;7.30;67.56;100372.37;4383350;32;33443;-83
2023/01/22 11:36:28;;;;;;;1.55;1.45;;;;;;;7.65;66.59;100383.91;4368955;32;30933;-83
2023/01/22 11:38:59;;;;;;;0.20;0.20;;;;;;;7.33;67.08;100398.59;4369434;32;32530;-83
2023/01/22 11:41:27;;;;;;;1.55;1.35;;;;;;;7.22;67.50;100387.44;4370734;32;33073;-83
2023/01/22 11:44:00;;;;;;;0.85;0.80;;;;;;;7.39;66.58;100385.31;4368340;32;33574;-83
2023/01/22 11:46:37;;;;;;;2.37;1.20;;;;;;;7.21;67.57;100388.31;4382317;32;33796;-83
2023/01/22 11:49:30;;;;;;;0.40;0.40;;;;;;;7.30;67.29;100396.00;4381464;32;33876;-83
2023/01/22 11:52:25;;;;;;;0.55;0.55;;;;;;;6.61;69.23;100393.88;4369403;32;33987;-82
2023/01/22 11:55:22;;;;;;;0.85;0.62;;;;;;;6.96;68.75;100393.19;4358159;32;32356;-82
2023/01/22 11:58:32;;;;;;;0.52;0.52;;;;;;;7.24;67.28;100392.66;4368454;32;34565;-81